Winnipeg James Armstrong Richardson International Airport
CYWG : now visible

Airfield :











YOU CAN JOIN US ON...

 
LOGIN :

Register | Disclaimer

   EN    FR    IT 

 









Legend :    VFR   Marginal VFR   IFR   Intensive IFR   Very Intensive IFR
Visi :
Ceiling :
>= 8 km
>= 3000ft
5 to 8 km
1000 to 3000 ft
1500m to 5 km
500 to 1000 ft
800 to 1500m
200 to 500 ft
< 800m
< 200 ft
Symbols :   Thunderstorms  Fog  Heavy snow  Heavy precipitations  Wind > 20 kt







- Airport Elevation : 783 ft
- IATA code : YWG


CYWG - Winnipeg James Armstrong Richardson International

CURRENT METAR :
  • 201635Z CCA 11021G31KT 15SM -SHRA FEW060 BKN080 OVC100 18/15 A2979 RMK SC2AC4AC2 LTNG E CVCTV CLD EMBD PRESFR SLP093 DENSITY ALT 1500FT

EXPIRED METARs :
  • 201600Z 11019G30KT 15SM FEW008 BKN100 OVC220 18/15 A2984 RMK SF1AC5CI2 SLP109 DENSITY ALT 1400FT
  • 201548Z 13019G25KT 080V150 8SM -SHRA FEW008 OVC100 18/15 A2984 RMK SF2AC6 CVCTV CLD EMBD OCNL DIST LTNG SE-S PRESRR SLP110 DENSITY ALT 1400FT
  • 201525Z 10021G27KT 6SM -SHRA BKN008 OVC100 17/16 A2983 RMK SF6AC4 CVCTV CLD EMBD PRESFR SLP107 DENSITY ALT 1300FT
  • 201500Z 08013KT 10SM -TSRA FEW008 OVC016CB 17/16 A2987 RMK SF2CB6 PRESFR SLP120 DENSITY ALT 1200FT

TAF AMD TAF CYWG
Valid from the 20 at 13:00 until the 21 at 12:00 UTC


201346Z 2013/2112 VRB20G35KT 2SM +TSRA BR FEW006 BKN012 OVC050CB
TEMPO 2013/2017 16015G25KT P6SM -SHRA SCT012 BKN050 OVC100
PROB30 2013/2017 1SM +TSRAGR OVC010CB
FM201700 18015G25KT P6SM SCT020 BKN120
TEMPO 2017/2023 P6SM -SHRA BKN020
FM202300 20012G22KT 6SM -SHRA BR OVC030
TEMPO 2023/2103 VRB20G30KT 3SM TSRA BR SCT015 OVC030CB
PROB30 2023/2103 VRB25G40KT 1SM +TSRAGR SCT008 OVC030CB
FM210300 21012G22KT 2SM SHRA BR SCT006 OVC012
TEMPO 2103/2109 6SM -SHRA BR
FM210900 27007KT P6SM -SHRA OVC010 RMK NXT FCST BY 201800Z
No reported NOTAMs for that airfield.



MET'MAP, your aeronautical weather chart ! - Copyright ORBIFLY December 2007 - Disclaimer

ORBIFLY MET'MAP TEAM :

Programming & Development : Alexandra Zaïnal
Concept & Development : Baudouin d'Aumeries
Co-Development & Prog : Marc-Olivier Méhu
Technical & hardware support : Manuel Goepfert

Contact : metmap@orbifly.com




SOURCES & CREDITS :

   NOAA       Earth
Advisory